createdAt,value
2022-08-11T00:03:43.274Z,16.28
2022-08-11T00:21:00.669Z,16.79
2022-08-11T00:26:08.085Z,16.89
2022-08-11T00:31:35.508Z,16.96
2022-08-11T00:37:05.671Z,17.11
2022-08-11T00:42:32.073Z,17.19
2022-08-11T00:47:42.813Z,17.14
2022-08-11T00:52:56.310Z,17.14
2022-08-11T00:58:37.531Z,17.08
2022-08-11T01:04:17.821Z,17.04
2022-08-11T01:15:40.127Z,17.15
2022-08-11T01:20:59.162Z,17.22
2022-08-11T01:26:31.530Z,17.21
2022-08-11T01:31:41.437Z,17.12
2022-08-11T01:37:18.598Z,17.12
2022-08-11T01:42:52.497Z,17.09
2022-08-11T01:48:16.169Z,17.03
2022-08-11T01:53:52.029Z,17.09
2022-08-11T01:59:14.820Z,17.15
2022-08-11T02:04:38.882Z,17.20
2022-08-11T02:10:26.892Z,17.21
2022-08-11T02:15:46.984Z,17.27
2022-08-11T02:21:16.941Z,17.29
2022-08-11T02:26:44.705Z,17.26
2022-08-11T02:32:31.281Z,17.23
2022-08-11T02:37:45.457Z,17.21
2022-08-11T02:42:49.374Z,17.09
2022-08-11T02:48:33.463Z,16.97
2022-08-11T02:53:58.392Z,16.92
2022-08-11T02:59:46.282Z,16.83
2022-08-11T03:05:04.986Z,16.78
2022-08-11T03:10:31.632Z,16.70
2022-08-11T03:16:35.499Z,16.56
2022-08-11T03:22:56.808Z,16.28
2022-08-11T03:28:29.009Z,16.06
2022-08-11T03:34:05.994Z,15.81
2022-08-11T03:39:35.661Z,15.62
2022-08-11T03:44:44.454Z,15.48
2022-08-11T03:50:20.542Z,15.45
2022-08-11T03:56:06.846Z,15.46
2022-08-11T04:01:37.683Z,15.55
2022-08-11T04:07:08.558Z,15.76
2022-08-11T04:12:45.652Z,15.78
2022-08-11T04:17:57.952Z,15.80
2022-08-11T04:24:36.676Z,15.94
2022-08-11T04:29:09.605Z,15.99
2022-08-11T04:34:24.842Z,16.04
2022-08-11T04:39:46.862Z,16.20
2022-08-11T04:45:26.730Z,16.39
2022-08-11T04:51:09.723Z,16.47
2022-08-11T04:56:44.004Z,16.69
2022-08-11T05:02:20.118Z,16.92
2022-08-11T05:08:03.991Z,17.24
2022-08-11T05:13:27.565Z,17.52
2022-08-11T05:18:52.438Z,17.79
2022-08-11T05:24:38.085Z,18.08
2022-08-11T05:30:27.459Z,18.42
2022-08-11T05:36:01.779Z,18.70
2022-08-11T05:41:26.563Z,19.00
2022-08-11T05:46:49.070Z,19.46
2022-08-11T05:52:12.671Z,19.97
2022-08-11T05:57:49.430Z,20.61
2022-08-11T06:02:57.448Z,21.11
2022-08-11T06:08:08.375Z,21.38
2022-08-11T06:13:17.230Z,21.54
2022-08-11T06:18:21.659Z,21.47
2022-08-11T06:23:31.071Z,21.51
2022-08-11T06:28:38.115Z,21.73
2022-08-11T06:33:55.951Z,22.00
2022-08-11T06:39:08.787Z,22.77
2022-08-11T06:44:14.752Z,23.72
2022-08-11T06:49:38.823Z,25.74
2022-08-11T06:54:51.794Z,27.77
2022-08-11T07:00:13.908Z,28.23
2022-08-11T07:05:36.365Z,28.96
2022-08-11T07:11:07.025Z,28.65
2022-08-11T07:16:14.042Z,29.36
2022-08-11T07:21:59.990Z,30.20
2022-08-11T07:27:28.753Z,30.60
2022-08-11T07:32:46.315Z,30.85
2022-08-11T07:38:01.791Z,30.06
2022-08-11T07:43:07.525Z,30.07
2022-08-11T07:48:31.206Z,28.70
2022-08-11T07:53:58.001Z,29.75
2022-08-11T07:59:18.965Z,29.92
2022-08-11T08:04:47.430Z,29.73
2022-08-11T08:10:15.886Z,29.35
2022-08-11T08:15:40.695Z,29.85
2022-08-11T08:20:47.605Z,28.85
2022-08-11T08:25:53.120Z,26.93
2022-08-11T08:30:57.743Z,26.38
2022-08-11T08:36:12.894Z,26.64
2022-08-11T08:41:22.932Z,26.92
2022-08-11T08:46:34.049Z,27.12
2022-08-11T08:52:01.691Z,27.90
2022-08-11T08:57:07.904Z,27.58
2022-08-11T09:02:13.276Z,27.02
2022-08-11T09:07:18.639Z,27.81
2022-08-11T09:12:35.755Z,27.18
2022-08-11T09:17:46.264Z,27.51
2022-08-11T09:24:07.300Z,27.82
2022-08-11T09:28:34.744Z,28.56
2022-08-11T09:33:37.925Z,30.27
2022-08-11T09:39:04.876Z,30.14
2022-08-11T09:44:29.359Z,29.36
2022-08-11T09:49:33.729Z,29.98
2022-08-11T09:54:38.288Z,30.37
2022-08-11T09:59:41.832Z,29.62
2022-08-11T10:04:46.736Z,29.68
2022-08-11T10:09:59.677Z,30.01
2022-08-11T10:15:26.650Z,29.77
2022-08-11T10:20:34.183Z,29.02
2022-08-11T10:25:56.792Z,28.36
2022-08-11T10:31:18.833Z,27.71
2022-08-11T10:36:22.816Z,26.24
2022-08-11T10:42:06.079Z,26.10
2022-08-11T10:47:31.036Z,26.29
2022-08-11T10:52:54.974Z,25.95
2022-08-11T10:58:17.521Z,25.49
2022-08-11T11:03:22.856Z,25.02
2022-08-11T11:08:50.010Z,25.12
2022-08-11T11:14:14.193Z,25.13
2022-08-11T11:19:21.053Z,24.93
2022-08-11T11:24:46.663Z,25.26
2022-08-11T11:30:08.708Z,25.47
2022-08-11T11:35:44.883Z,26.39
2022-08-11T11:41:09.704Z,28.33
2022-08-11T11:46:14.276Z,28.40
2022-08-11T11:51:17.972Z,28.70
2022-08-11T11:56:24.823Z,28.72
2022-08-11T12:01:28.940Z,28.35
2022-08-11T12:06:33.434Z,28.29
2022-08-11T12:11:59.985Z,27.29
2022-08-11T12:17:03.794Z,26.93
2022-08-11T12:22:26.529Z,26.97
2022-08-11T12:27:31.825Z,26.95
2022-08-11T12:32:37.048Z,26.84
2022-08-11T12:37:42.040Z,26.94
2022-08-11T12:43:08.174Z,26.14
2022-08-11T12:49:00.543Z,26.26
2022-08-11T12:54:17.475Z,25.89
2022-08-11T12:59:42.887Z,25.51
2022-08-11T13:04:59.521Z,25.15
2022-08-11T13:10:06.551Z,24.98
2022-08-11T13:15:26.398Z,24.69
2022-08-11T13:20:32.815Z,25.62
2022-08-11T13:25:36.566Z,25.59
2022-08-11T13:30:59.282Z,25.71
2022-08-11T13:36:03.984Z,25.16
2022-08-11T13:41:27.472Z,24.69
2022-08-11T13:46:31.690Z,24.57
2022-08-11T13:51:35.808Z,24.56
2022-08-11T13:56:45.589Z,24.70
2022-08-11T14:02:20.088Z,24.71
2022-08-11T14:07:23.022Z,24.79
2022-08-11T14:12:48.838Z,24.69
2022-08-11T14:18:03.489Z,24.19
2022-08-11T14:23:06.971Z,23.95
2022-08-11T14:28:32.504Z,23.75
2022-08-11T14:33:59.529Z,23.73
2022-08-11T14:39:04.534Z,23.54
2022-08-11T14:44:28.088Z,23.42
2022-08-11T14:49:35.034Z,23.29
2022-08-11T14:54:57.463Z,23.28
2022-08-11T15:00:04.279Z,23.33
2022-08-11T15:05:08.545Z,23.09
2022-08-11T15:10:13.506Z,22.93
2022-08-11T15:15:37.668Z,23.03
2022-08-11T15:20:59.993Z,22.99
2022-08-11T15:26:14.174Z,23.01
2022-08-11T15:31:28.450Z,23.00
2022-08-11T15:36:52.265Z,23.00
2022-08-11T15:42:22.021Z,22.80
2022-08-11T15:47:29.444Z,22.76
2022-08-11T15:52:43.989Z,22.46
2022-08-11T15:58:08.634Z,22.40
2022-08-11T16:04:06.448Z,22.49
2022-08-11T16:08:58.420Z,22.53
2022-08-11T16:14:25.532Z,22.49
2022-08-11T16:19:36.138Z,22.40
2022-08-11T16:27:04.287Z,22.53
2022-08-11T16:30:11.068Z,22.45
2022-08-11T16:35:36.456Z,22.50
2022-08-11T16:40:43.061Z,22.51
2022-08-11T16:46:05.151Z,22.64
2022-08-11T16:51:11.988Z,22.72
2022-08-11T16:56:19.782Z,22.72
2022-08-11T17:01:26.369Z,22.60
2022-08-11T17:06:48.857Z,22.55
2022-08-11T17:12:17.106Z,22.52
2022-08-11T17:17:38.016Z,22.25
2022-08-11T17:23:01.715Z,21.99
2022-08-11T17:28:07.060Z,21.86
2022-08-11T17:33:33.213Z,21.69
2022-08-11T17:38:39.501Z,21.39
2022-08-11T17:44:02.369Z,21.13
2022-08-11T17:49:08.042Z,20.83
2022-08-11T17:54:30.457Z,20.58
2022-08-11T17:59:53.557Z,20.28
2022-08-11T18:04:59.161Z,19.95
2022-08-11T18:10:25.730Z,19.68
2022-08-11T18:15:50.099Z,19.35
2022-08-11T18:21:18.558Z,19.09
2022-08-11T18:26:44.606Z,18.93
2022-08-11T18:32:10.483Z,18.75
2022-08-11T18:37:37.776Z,18.69
2022-08-11T18:43:03.974Z,18.63
2022-08-11T18:48:34.016Z,18.54
2022-08-11T18:54:00.590Z,18.49
2022-08-11T18:59:25.122Z,18.25
2022-08-11T19:04:48.929Z,18.19
2022-08-11T19:10:13.366Z,18.19
2022-08-11T19:15:37.668Z,18.21
2022-08-11T19:21:03.533Z,18.15
2022-08-11T19:26:27.598Z,18.04
2022-08-11T19:31:50.789Z,17.91
2022-08-11T19:37:13.607Z,17.81
2022-08-11T19:42:37.386Z,17.72
2022-08-11T19:48:30.247Z,17.66
2022-08-11T19:53:46.485Z,17.63
2022-08-11T19:59:10.639Z,17.59
2022-08-11T20:04:33.134Z,17.44
2022-08-11T20:10:05.766Z,17.40
2022-08-11T20:15:32.784Z,17.26
2022-08-11T20:21:01.476Z,17.14
2022-08-11T20:26:34.063Z,17.01
2022-08-11T20:31:57.559Z,16.91
2022-08-11T20:37:22.358Z,16.81
2022-08-11T20:49:10.626Z,16.67
2022-08-11T20:55:00.850Z,16.63
2022-08-11T21:00:39.258Z,16.55
2022-08-11T21:06:34.942Z,16.46
2022-08-11T21:12:03.756Z,16.41
2022-08-11T21:17:28.493Z,16.35
2022-08-11T21:23:04.963Z,16.28
2022-08-11T21:28:32.003Z,16.21
2022-08-11T21:33:57.725Z,16.11
2022-08-11T21:39:24.978Z,16.06
2022-08-11T21:44:49.642Z,16.01
2022-08-11T21:50:11.622Z,15.96
2022-08-11T21:55:34.461Z,15.89
2022-08-11T22:00:57.514Z,15.84
2022-08-11T22:06:20.047Z,15.76
2022-08-11T22:11:43.374Z,15.72
2022-08-11T22:17:05.389Z,15.71
2022-08-11T22:22:30.407Z,15.73
2022-08-11T22:27:52.990Z,15.76
2022-08-11T22:33:17.535Z,15.68
2022-08-11T22:38:51.537Z,15.62
2022-08-11T22:44:13.855Z,15.57
2022-08-11T22:49:57.067Z,15.54
2022-08-11T22:55:19.426Z,15.55
2022-08-11T23:00:42.104Z,15.46
2022-08-11T23:06:05.129Z,15.40
2022-08-11T23:11:27.050Z,15.39
2022-08-11T23:17:10.106Z,15.32
2022-08-11T23:22:36.830Z,15.24
2022-08-11T23:28:12.516Z,15.21
2022-08-11T23:33:36.810Z,15.14
2022-08-11T23:38:58.487Z,15.12
2022-08-11T23:44:21.754Z,15.23
2022-08-11T23:49:46.595Z,15.17
2022-08-11T23:55:09.110Z,15.17
